Řízení letového provozu České republiky
Letiste: LKKB Aktualizace: 18.12.2018 17:00:06  UTC
 METAR LKKB 18.12. 17:00 ...
METAR LKKB 181700Z 05003KT 0400 R24/0750U SCT002 M01/M01 Q1025 NOSIG RMK RED RED=
 TAF LKKB 18.12. 11:00 AAA
TAF AMD LKKB 181100Z 1812/1912 VRB02KT 9999 BKN040      BECMG 1814/1816 3000 BR NSC      TEMPO 1815/1806 0300 FG SCT004      BECMG 1908/1910 12010KT CAVOK=
 WARNING LKKB 18.12. 15:30 ...
LKKB AD WRNG 1 VALID 181530/181730 VIS BLW 800M OBS AND FCST=